createdAt,value
2022-07-25T00:00:58.453Z,66.56
2022-07-25T00:01:58.871Z,66.56
2022-07-25T00:02:59.026Z,66.67
2022-07-25T00:03:59.410Z,67.17
2022-07-25T00:04:59.693Z,67.17
2022-07-25T00:05:59.928Z,66.97
2022-07-25T00:07:00.157Z,66.36
2022-07-25T00:08:00.496Z,67.07
2022-07-25T00:09:00.827Z,66.67
2022-07-25T00:10:01.146Z,66.97
2022-07-25T00:11:01.490Z,66.56
2022-07-25T00:12:01.818Z,67.17
2022-07-25T00:13:02.169Z,65.66
2022-07-25T00:14:02.545Z,65.96
2022-07-25T00:15:02.719Z,65.76
2022-07-25T00:16:03.030Z,65.86
2022-07-25T00:17:03.242Z,66.06
2022-07-25T00:18:03.471Z,65.46
2022-07-25T00:19:03.824Z,65.66
2022-07-25T00:20:04.056Z,65.56
2022-07-25T00:21:04.458Z,65.76
2022-07-25T00:22:04.671Z,65.96
2022-07-25T00:23:05.013Z,64.95
2022-07-25T00:24:05.531Z,65.56
2022-07-25T00:25:05.575Z,64.86
2022-07-25T00:26:05.915Z,65.06
2022-07-25T00:27:06.254Z,65.16
2022-07-25T00:28:06.578Z,64.35
2022-07-25T00:29:06.915Z,65.06
2022-07-25T00:30:07.267Z,66.27
2022-07-25T00:31:07.572Z,64.86
2022-07-25T00:32:07.797Z,64.55
2022-07-25T00:33:08.125Z,66.06
2022-07-25T00:34:08.873Z,64.95
2022-07-25T00:35:08.817Z,64.32
2022-07-25T00:36:09.034Z,64.72
2022-07-25T00:37:09.358Z,64.42
2022-07-25T00:38:09.697Z,64.22
2022-07-25T00:39:10.037Z,64.42
2022-07-25T00:40:10.377Z,64.42
2022-07-25T00:41:10.722Z,64.62
2022-07-25T00:42:11.064Z,63.42
2022-07-25T00:43:11.400Z,63.31
2022-07-25T00:44:11.722Z,63.62
2022-07-25T00:45:12.070Z,64.42
2022-07-25T00:46:12.413Z,64.02
2022-07-25T00:47:12.722Z,63.92
2022-07-25T00:48:13.071Z,64.32
2022-07-25T00:49:13.471Z,64.02
2022-07-25T00:50:13.705Z,62.71
2022-07-25T00:51:13.924Z,62.41
2022-07-25T00:52:14.262Z,62.10
2022-07-25T00:53:14.604Z,63.01
2022-07-25T00:54:14.944Z,62.71
2022-07-25T00:55:15.300Z,62.91
2022-07-25T00:56:15.508Z,63.11
2022-07-25T00:57:15.846Z,62.91
2022-07-25T00:58:16.189Z,62.51
2022-07-25T00:59:16.506Z,63.11
2022-07-25T01:00:16.848Z,63.01
2022-07-25T01:01:17.205Z,63.18
2022-07-25T01:02:17.563Z,62.27
2022-07-25T01:03:19.871Z,63.08
2022-07-25T01:04:18.068Z,62.48
2022-07-25T01:05:18.418Z,61.57
2022-07-25T01:06:18.758Z,62.27
2022-07-25T01:07:19.089Z,61.67
2022-07-25T01:08:19.418Z,61.27
2022-07-25T01:09:19.760Z,61.67
2022-07-25T01:10:20.121Z,61.67
2022-07-25T01:11:20.333Z,62.27
2022-07-25T01:12:20.732Z,62.71
2022-07-25T01:13:21.032Z,62.30
2022-07-25T01:14:21.209Z,62.71
2022-07-25T01:15:21.573Z,63.42
2022-07-25T01:16:21.856Z,63.42
2022-07-25T01:17:22.098Z,63.75
2022-07-25T01:18:22.414Z,64.25
2022-07-25T01:19:22.772Z,64.35
2022-07-25T01:20:22.984Z,64.45
2022-07-25T01:21:23.325Z,64.05
2022-07-25T01:22:23.657Z,63.65
2022-07-25T01:23:24.005Z,63.85
2022-07-25T01:24:24.336Z,63.54
2022-07-25T01:25:24.683Z,64.05
2022-07-25T01:26:25.027Z,63.65
2022-07-25T01:27:25.376Z,64.55
2022-07-25T01:28:25.738Z,64.75
2022-07-25T01:29:26.008Z,64.48
2022-07-25T01:30:26.362Z,64.78
2022-07-25T01:31:28.687Z,64.98
2022-07-25T01:32:26.845Z,65.09
2022-07-25T01:33:27.181Z,64.98
2022-07-25T01:34:27.517Z,65.09
2022-07-25T01:35:27.860Z,65.09
2022-07-25T01:36:28.222Z,65.49
2022-07-25T01:37:28.442Z,65.29
2022-07-25T01:38:28.785Z,65.29
2022-07-25T01:39:29.108Z,64.98
2022-07-25T01:40:29.483Z,64.78
2022-07-25T01:41:29.717Z,64.69
2022-07-25T01:42:29.916Z,64.78
2022-07-25T01:43:30.163Z,64.98
2022-07-25T01:44:30.503Z,63.47
2022-07-25T01:45:30.851Z,63.37
2022-07-25T01:46:31.241Z,64.48
2022-07-25T01:47:31.464Z,64.18
2022-07-25T01:48:31.815Z,63.67
2022-07-25T01:49:32.155Z,64.69
2022-07-25T01:50:32.377Z,64.69
2022-07-25T01:51:32.717Z,64.58
2022-07-25T01:52:33.046Z,64.78
2022-07-25T01:53:33.382Z,65.19
2022-07-25T01:54:33.656Z,65.19
2022-07-25T01:55:33.998Z,64.48
2022-07-25T01:56:34.254Z,64.51
2022-07-25T01:57:36.262Z,65.12
2022-07-25T01:58:34.919Z,64.11
2022-07-25T01:59:35.267Z,64.92
2022-07-25T02:00:35.601Z,65.32
2022-07-25T02:01:35.999Z,65.52
2022-07-25T02:02:36.241Z,65.32
2022-07-25T02:03:36.480Z,65.52
2022-07-25T02:04:36.764Z,65.92
2022-07-25T02:05:37.020Z,65.92
2022-07-25T02:06:37.233Z,65.92
2022-07-25T02:07:37.562Z,65.32
2022-07-25T02:08:37.895Z,65.92
2022-07-25T02:09:38.165Z,64.81
2022-07-25T02:10:38.513Z,65.32
2022-07-25T02:11:38.846Z,65.42
2022-07-25T02:12:39.185Z,65.62
2022-07-25T02:13:39.506Z,65.42
2022-07-25T02:14:39.845Z,65.92
2022-07-25T02:15:40.205Z,66.02
2022-07-25T02:16:40.503Z,65.82
2022-07-25T02:17:40.740Z,65.72
2022-07-25T02:18:40.937Z,65.62
2022-07-25T02:19:41.307Z,65.32
2022-07-25T02:20:41.550Z,65.42
2022-07-25T02:21:41.768Z,65.12
2022-07-25T02:22:42.019Z,65.42
2022-07-25T02:23:42.233Z,65.32
2022-07-25T02:24:42.578Z,65.22
2022-07-25T02:25:42.935Z,65.12
2022-07-25T02:26:43.150Z,65.42
2022-07-25T02:27:43.482Z,64.81
2022-07-25T02:28:43.810Z,64.11
2022-07-25T02:29:44.174Z,64.72
2022-07-25T02:30:44.440Z,65.22
2022-07-25T02:31:44.657Z,65.42
2022-07-25T02:32:44.991Z,65.52
2022-07-25T02:33:45.332Z,65.72
2022-07-25T02:34:53.062Z,65.72
2022-07-25T02:35:45.884Z,65.82
2022-07-25T02:36:46.212Z,65.32
2022-07-25T02:37:46.554Z,65.72
2022-07-25T02:38:46.889Z,65.82
2022-07-25T02:39:47.215Z,65.62
2022-07-25T02:40:47.549Z,65.65
2022-07-25T02:41:47.868Z,65.85
2022-07-25T02:42:48.193Z,65.45
2022-07-25T02:43:48.524Z,65.55
2022-07-25T02:44:48.858Z,65.85
2022-07-25T02:45:49.257Z,65.82
2022-07-25T02:46:49.514Z,65.92
2022-07-25T02:47:49.847Z,66.02
2022-07-25T02:48:50.216Z,65.75
2022-07-25T02:49:50.426Z,65.95
2022-07-25T02:50:50.775Z,65.82
2022-07-25T02:51:51.010Z,66.13
2022-07-25T02:52:51.229Z,65.72
2022-07-25T02:53:59.115Z,66.05
2022-07-25T02:54:52.899Z,66.36
2022-07-25T02:55:52.182Z,65.95
2022-07-25T02:56:52.504Z,66.25
2022-07-25T02:57:52.843Z,66.33
2022-07-25T02:58:53.188Z,66.46
2022-07-25T02:59:53.520Z,66.76
2022-07-25T03:00:53.916Z,66.76
2022-07-25T03:01:54.222Z,67.07
2022-07-25T03:02:54.445Z,67.47
2022-07-25T03:03:54.814Z,67.36
2022-07-25T03:04:55.024Z,67.36
2022-07-25T03:05:55.387Z,66.05
2022-07-25T03:06:55.612Z,66.66
2022-07-25T03:07:55.986Z,67.27
2022-07-25T03:08:56.195Z,67.36
2022-07-25T03:09:56.559Z,67.36
2022-07-25T03:10:56.799Z,67.67
2022-07-25T03:11:57.033Z,67.27
2022-07-25T03:12:57.266Z,67.47
2022-07-25T03:13:57.495Z,67.47
2022-07-25T03:14:57.729Z,67.67
2022-07-25T03:15:57.967Z,66.86
2022-07-25T03:16:58.299Z,67.36
2022-07-25T03:17:58.528Z,67.67
2022-07-25T03:18:58.758Z,66.86
2022-07-25T03:19:59.001Z,67.67
2022-07-25T03:20:59.251Z,66.36
2022-07-25T03:21:59.472Z,66.76
2022-07-25T03:22:59.703Z,66.46
2022-07-25T03:23:59.931Z,66.36
2022-07-25T03:25:00.165Z,66.36
2022-07-25T03:26:00.453Z,66.16
2022-07-25T03:27:00.698Z,66.25
2022-07-25T03:28:00.930Z,66.46
2022-07-25T03:29:01.155Z,66.86
2022-07-25T03:30:01.392Z,67.36
2022-07-25T03:31:01.625Z,67.27
2022-07-25T03:32:01.922Z,67.47
2022-07-25T03:33:02.185Z,67.57
2022-07-25T03:34:02.653Z,67.57
2022-07-25T03:35:02.796Z,67.13
2022-07-25T03:36:03.038Z,66.42
2022-07-25T03:37:03.265Z,66.22
2022-07-25T03:38:03.508Z,66.13
2022-07-25T03:39:05.583Z,66.13
2022-07-25T03:40:04.025Z,65.92
2022-07-25T03:41:04.260Z,66.13
2022-07-25T03:42:04.510Z,66.13
2022-07-25T03:43:04.727Z,65.52
2022-07-25T03:44:05.363Z,65.82
2022-07-25T03:45:05.416Z,66.42
2022-07-25T03:46:05.714Z,65.72
2022-07-25T03:47:05.990Z,66.02
2022-07-25T03:48:06.232Z,66.33
2022-07-25T03:49:06.524Z,65.52
2022-07-25T03:50:06.718Z,65.82
2022-07-25T03:51:07.441Z,65.62
2022-07-25T03:52:07.212Z,65.72
2022-07-25T03:53:07.463Z,66.02
2022-07-25T03:54:07.942Z,66.22
2022-07-25T03:55:08.041Z,65.72
2022-07-25T03:56:08.299Z,65.82
2022-07-25T03:57:08.549Z,65.82
2022-07-25T03:58:08.798Z,65.79
2022-07-25T03:59:09.044Z,65.79
2022-07-25T04:00:09.300Z,65.69
2022-07-25T04:01:09.632Z,65.49
2022-07-25T04:02:09.802Z,65.59
2022-07-25T04:03:10.081Z,65.99
2022-07-25T04:04:10.480Z,66.39
2022-07-25T04:05:10.648Z,66.39
2022-07-25T04:06:10.892Z,66.39
2022-07-25T04:07:11.138Z,65.99
2022-07-25T04:08:11.378Z,65.89
2022-07-25T04:09:11.619Z,66.19
2022-07-25T04:10:11.886Z,66.19
2022-07-25T04:11:12.129Z,66.50
2022-07-25T04:12:12.368Z,66.70
2022-07-25T04:13:12.620Z,66.80
2022-07-25T04:14:12.880Z,66.50
2022-07-25T04:15:13.138Z,66.19
2022-07-25T04:16:14.897Z,66.30
2022-07-25T04:17:14.771Z,66.19
2022-07-25T04:18:18.494Z,65.99
2022-07-25T04:19:15.305Z,66.09
2022-07-25T04:20:14.617Z,65.89
2022-07-25T04:21:14.865Z,66.19
2022-07-25T04:22:15.103Z,65.99
2022-07-25T04:23:15.355Z,66.09
2022-07-25T04:24:15.618Z,66.30
2022-07-25T04:25:15.865Z,66.39
2022-07-25T04:26:16.105Z,66.19
2022-07-25T04:27:16.344Z,66.60
2022-07-25T04:28:16.582Z,66.30
2022-07-25T04:29:16.837Z,66.60
2022-07-25T04:30:23.828Z,66.50
2022-07-25T04:31:18.439Z,66.30
2022-07-25T04:32:22.835Z,66.36
2022-07-25T04:33:19.058Z,66.27
2022-07-25T04:34:18.351Z,66.06
2022-07-25T04:35:18.600Z,66.27
2022-07-25T04:36:18.852Z,66.47
2022-07-25T04:37:19.100Z,66.36
2022-07-25T04:38:19.342Z,66.47
2022-07-25T04:39:19.605Z,66.06
2022-07-25T04:40:19.860Z,65.76
2022-07-25T04:41:20.101Z,66.16
2022-07-25T04:42:20.352Z,65.76
2022-07-25T04:43:20.593Z,65.46
2022-07-25T04:44:20.863Z,65.06
2022-07-25T04:45:21.129Z,64.75
2022-07-25T04:46:21.471Z,64.55
2022-07-25T04:47:21.715Z,64.75
2022-07-25T04:48:21.967Z,64.86
2022-07-25T04:49:22.222Z,65.06
2022-07-25T04:50:25.013Z,65.46
2022-07-25T04:51:22.726Z,65.26
2022-07-25T04:52:22.988Z,65.26
2022-07-25T04:53:23.236Z,65.26
2022-07-25T04:54:23.496Z,64.92
2022-07-25T04:55:23.747Z,65.22
2022-07-25T04:56:23.997Z,65.02
2022-07-25T04:57:24.251Z,64.72
2022-07-25T04:58:24.507Z,64.82
2022-07-25T04:59:24.762Z,64.92
2022-07-25T05:00:25.010Z,64.42
2022-07-25T05:01:25.340Z,65.02
2022-07-25T05:02:25.578Z,65.12
2022-07-25T05:03:25.776Z,64.79
2022-07-25T05:04:26.031Z,64.59
2022-07-25T05:05:26.282Z,64.39
2022-07-25T05:06:26.522Z,63.89
2022-07-25T05:07:26.792Z,63.22
2022-07-25T05:08:27.078Z,61.46
2022-07-25T05:09:27.348Z,59.99
2022-07-25T05:10:27.594Z,58.50
2022-07-25T05:11:27.875Z,57.35
2022-07-25T05:12:28.131Z,56.42
2022-07-25T05:13:28.424Z,55.87
2022-07-25T05:14:28.695Z,54.74
2022-07-25T05:15:28.957Z,53.92
2022-07-25T05:16:29.270Z,52.99
2022-07-25T05:17:29.556Z,52.97
2022-07-25T05:18:29.828Z,52.25
2022-07-25T05:19:30.098Z,51.52
2022-07-25T05:20:30.357Z,51.29
2022-07-25T05:21:30.620Z,51.20
2022-07-25T05:22:30.882Z,50.48
2022-07-25T05:23:31.164Z,50.48
2022-07-25T05:24:31.423Z,50.48
2022-07-25T05:25:31.690Z,50.15
2022-07-25T05:26:31.941Z,49.76
2022-07-25T05:27:32.204Z,50.03
2022-07-25T05:28:32.490Z,49.93
2022-07-25T05:29:32.749Z,49.61
2022-07-25T05:30:37.799Z,49.19
2022-07-25T05:31:34.361Z,48.49
2022-07-25T05:32:33.574Z,48.66
2022-07-25T05:33:33.844Z,48.37
2022-07-25T05:34:34.103Z,47.85
2022-07-25T05:35:34.359Z,47.75
2022-07-25T05:36:34.627Z,47.85
2022-07-25T05:37:34.906Z,47.43
2022-07-25T05:38:35.195Z,47.33
2022-07-25T05:39:35.458Z,47.61
2022-07-25T05:40:35.709Z,47.21
2022-07-25T05:41:35.984Z,46.79
2022-07-25T05:42:36.230Z,46.39
2022-07-25T05:43:36.514Z,46.59
2022-07-25T05:44:36.786Z,46.69
2022-07-25T05:45:37.011Z,46.47
2022-07-25T05:46:37.309Z,46.57
2022-07-25T05:47:37.554Z,45.57
2022-07-25T05:48:37.877Z,46.07
2022-07-25T05:49:38.076Z,45.78
2022-07-25T05:50:38.365Z,45.68
2022-07-25T05:51:38.735Z,44.89
2022-07-25T05:52:39.015Z,44.68
2022-07-25T05:53:39.298Z,44.98
2022-07-25T05:54:39.556Z,44.11
2022-07-25T05:55:40.153Z,44.11
2022-07-25T05:56:40.097Z,44.41
2022-07-25T05:57:40.388Z,44.81
2022-07-25T05:58:40.679Z,44.11
2022-07-25T05:59:40.961Z,44.11
2022-07-25T06:00:41.210Z,44.31
2022-07-25T06:01:41.555Z,43.52
2022-07-25T06:02:41.836Z,43.82
2022-07-25T06:03:42.004Z,43.71
2022-07-25T06:04:42.249Z,44.49
2022-07-25T06:05:42.515Z,43.60
2022-07-25T06:06:42.754Z,43.52
2022-07-25T06:07:43.023Z,43.32
2022-07-25T06:08:43.293Z,43.42
2022-07-25T06:09:43.561Z,43.91
2022-07-25T06:10:43.809Z,44.01
2022-07-25T06:11:54.470Z,43.89
2022-07-25T06:12:45.411Z,44.68
2022-07-25T06:13:44.774Z,43.10
2022-07-25T06:14:45.048Z,43.00
2022-07-25T06:15:45.319Z,42.90
2022-07-25T06:16:45.703Z,43.49
2022-07-25T06:17:45.837Z,42.38
2022-07-25T06:18:46.122Z,42.88
2022-07-25T06:19:46.409Z,42.38
2022-07-25T06:20:46.675Z,42.49
2022-07-25T06:21:46.941Z,42.49
2022-07-25T06:22:47.212Z,42.49
2022-07-25T06:23:47.512Z,42.78
2022-07-25T06:24:47.769Z,42.66
2022-07-25T06:25:50.488Z,42.27
2022-07-25T06:26:48.315Z,42.46
2022-07-25T06:27:48.595Z,42.17
2022-07-25T06:28:48.885Z,41.85
2022-07-25T06:29:49.166Z,42.35
2022-07-25T06:30:49.436Z,42.35
2022-07-25T06:31:49.769Z,42.05
2022-07-25T06:32:49.966Z,41.83
2022-07-25T06:33:50.260Z,41.73
2022-07-25T06:34:50.520Z,41.93
2022-07-25T06:35:50.818Z,41.36
2022-07-25T06:36:51.073Z,40.96
2022-07-25T06:37:51.352Z,41.25
2022-07-25T06:38:51.650Z,41.77
2022-07-25T06:39:51.925Z,41.57
2022-07-25T06:40:52.183Z,41.60
2022-07-25T06:41:52.467Z,41.69
2022-07-25T06:42:52.748Z,42.38
2022-07-25T06:43:53.035Z,42.19
2022-07-25T06:44:53.298Z,42.29
2022-07-25T06:45:53.604Z,42.49
2022-07-25T06:46:53.913Z,42.58
2022-07-25T06:47:54.207Z,42.49
2022-07-25T06:48:54.543Z,42.41
2022-07-25T06:49:54.719Z,42.88
2022-07-25T06:50:54.997Z,42.98
2022-07-25T06:51:55.279Z,42.88
2022-07-25T06:52:55.546Z,42.78
2022-07-25T06:53:55.844Z,42.68
2022-07-25T06:54:56.142Z,42.68
2022-07-25T06:55:56.453Z,42.78
2022-07-25T06:56:56.783Z,42.88
2022-07-25T06:57:57.082Z,43.20
2022-07-25T06:58:57.359Z,43.40
2022-07-25T06:59:57.628Z,43.82
2022-07-25T07:00:57.934Z,43.71
2022-07-25T07:01:58.219Z,45.23
2022-07-25T07:02:58.671Z,45.62
2022-07-25T07:03:58.749Z,45.64
2022-07-25T07:04:59.047Z,45.34
2022-07-25T07:05:59.331Z,46.26
2022-07-25T07:06:59.627Z,46.48
2022-07-25T07:07:59.893Z,46.48
2022-07-25T07:09:00.168Z,46.70
2022-07-25T07:10:00.435Z,46.60
2022-07-25T07:11:00.733Z,48.02
2022-07-25T07:12:01.003Z,47.54
2022-07-25T07:13:01.296Z,48.83
2022-07-25T07:14:01.604Z,48.44
2022-07-25T07:15:01.885Z,48.64
2022-07-25T07:16:02.235Z,48.54
2022-07-25T07:17:02.439Z,48.64
2022-07-25T07:18:02.743Z,48.83
2022-07-25T07:19:03.432Z,48.74
2022-07-25T07:20:03.379Z,48.83
2022-07-25T07:21:03.903Z,48.76
2022-07-25T07:22:03.980Z,48.86
2022-07-25T07:23:04.352Z,48.76
2022-07-25T07:24:04.480Z,48.86
2022-07-25T07:25:05.741Z,49.16
2022-07-25T07:26:04.992Z,48.96
2022-07-25T07:27:05.311Z,49.06
2022-07-25T07:28:05.601Z,49.36
2022-07-25T07:29:06.288Z,49.55
2022-07-25T07:30:06.149Z,49.36
2022-07-25T07:31:16.501Z,49.36
2022-07-25T07:32:08.534Z,49.36
2022-07-25T07:33:06.914Z,49.16
2022-07-25T07:34:07.206Z,49.46
2022-07-25T07:35:07.482Z,49.55
2022-07-25T07:36:07.752Z,49.43
2022-07-25T07:37:08.039Z,49.63
2022-07-25T07:38:08.329Z,49.43
2022-07-25T07:39:09.093Z,49.33
2022-07-25T07:40:08.972Z,49.53
2022-07-25T07:41:10.199Z,49.93
2022-07-25T07:42:09.574Z,49.73
2022-07-25T07:43:09.894Z,49.53
2022-07-25T07:44:10.185Z,49.55
2022-07-25T07:45:10.491Z,49.26
2022-07-25T07:46:10.864Z,49.46
2022-07-25T07:47:14.487Z,49.63
2022-07-25T07:48:11.516Z,50.13
2022-07-25T07:49:12.255Z,50.13
2022-07-25T07:50:11.967Z,50.13
2022-07-25T07:51:12.253Z,50.13
2022-07-25T07:52:12.545Z,49.93
2022-07-25T07:53:12.836Z,49.73
2022-07-25T07:54:13.137Z,49.93
2022-07-25T07:55:13.417Z,49.83
2022-07-25T07:56:13.690Z,50.03
2022-07-25T07:57:15.162Z,49.93
2022-07-25T07:58:14.259Z,50.03
2022-07-25T07:59:14.591Z,49.83
2022-07-25T08:00:16.632Z,49.73
2022-07-25T08:01:15.199Z,49.83
2022-07-25T08:02:15.547Z,50.33
2022-07-25T08:03:15.775Z,49.93
2022-07-25T08:04:16.098Z,50.13
2022-07-25T08:05:16.357Z,50.31
2022-07-25T08:06:16.673Z,50.01
2022-07-25T08:07:16.916Z,50.31
2022-07-25T08:08:17.219Z,50.70
2022-07-25T08:09:17.486Z,50.40
2022-07-25T08:10:17.766Z,50.20
2022-07-25T08:11:18.046Z,50.40
2022-07-25T08:12:18.401Z,50.40
2022-07-25T08:13:18.706Z,50.31
2022-07-25T08:14:19.036Z,50.01
2022-07-25T08:15:19.388Z,49.91
2022-07-25T08:16:19.600Z,50.01
2022-07-25T08:17:22.506Z,49.91
2022-07-25T08:18:21.163Z,50.80
2022-07-25T08:19:20.421Z,50.18
2022-07-25T08:20:37.562Z,49.98
2022-07-25T08:21:21.956Z,49.38
2022-07-25T08:22:21.338Z,49.49
2022-07-25T08:23:21.648Z,49.88
2022-07-25T08:24:21.911Z,49.98
2022-07-25T08:25:22.298Z,50.08
2022-07-25T08:26:22.453Z,49.78
2022-07-25T08:27:22.784Z,49.78
2022-07-25T08:28:23.011Z,49.78
2022-07-25T08:29:28.047Z,49.68
2022-07-25T08:30:24.559Z,49.68
2022-07-25T08:31:23.834Z,49.58
2022-07-25T08:32:24.010Z,49.49
2022-07-25T08:33:24.353Z,49.49
2022-07-25T08:34:24.601Z,49.49
2022-07-25T08:35:24.859Z,49.49
2022-07-25T08:36:25.130Z,49.49
2022-07-25T08:37:25.405Z,49.58
2022-07-25T08:38:25.693Z,49.29
2022-07-25T08:39:25.966Z,49.19
2022-07-25T08:40:26.224Z,49.36
2022-07-25T08:41:26.505Z,49.07
2022-07-25T08:42:26.754Z,49.26
2022-07-25T08:43:27.074Z,49.36
2022-07-25T08:44:27.317Z,49.26
2022-07-25T08:45:27.568Z,49.36
2022-07-25T08:46:27.906Z,49.26
2022-07-25T08:47:28.158Z,49.24
2022-07-25T08:48:28.477Z,49.14
2022-07-25T08:49:28.707Z,49.74
2022-07-25T08:50:28.937Z,49.04
2022-07-25T08:51:29.187Z,48.84
2022-07-25T08:52:29.439Z,48.84
2022-07-25T08:53:34.390Z,48.65
2022-07-25T08:54:31.056Z,48.84
2022-07-25T08:55:30.372Z,48.84
2022-07-25T08:56:30.613Z,48.74
2022-07-25T08:57:30.981Z,48.74
2022-07-25T08:58:31.110Z,48.94
2022-07-25T08:59:31.354Z,49.34
2022-07-25T09:00:31.605Z,49.14
2022-07-25T09:01:34.900Z,48.94
2022-07-25T09:02:32.246Z,48.84
2022-07-25T09:03:32.456Z,49.14
2022-07-25T09:04:32.695Z,48.74
2022-07-25T09:05:32.937Z,48.74
2022-07-25T09:06:33.287Z,48.74
2022-07-25T09:07:33.545Z,48.74
2022-07-25T09:08:33.824Z,49.24
2022-07-25T09:09:34.087Z,49.34
2022-07-25T09:10:34.350Z,49.34
2022-07-25T09:11:34.591Z,49.44
2022-07-25T09:12:34.843Z,49.34
2022-07-25T09:13:35.102Z,49.34
2022-07-25T09:14:35.360Z,49.24
2022-07-25T09:15:35.658Z,49.04
2022-07-25T09:16:35.891Z,48.94
2022-07-25T09:17:36.140Z,48.84
2022-07-25T09:18:36.372Z,48.92
2022-07-25T09:19:36.627Z,48.82
2022-07-25T09:20:36.875Z,48.72
2022-07-25T09:21:37.245Z,49.02
2022-07-25T09:22:37.365Z,48.92
2022-07-25T09:23:37.626Z,48.72
2022-07-25T09:24:37.867Z,48.82
2022-07-25T09:25:38.134Z,48.62
2022-07-25T09:26:38.429Z,48.92
2022-07-25T09:27:38.715Z,48.82
2022-07-25T09:28:38.978Z,48.82
2022-07-25T09:29:39.309Z,49.21
2022-07-25T09:30:39.599Z,49.41
2022-07-25T09:31:39.936Z,50.60
2022-07-25T09:32:40.087Z,50.40
2022-07-25T09:33:40.364Z,51.47
2022-07-25T09:34:40.642Z,51.77
2022-07-25T09:35:40.954Z,50.88
2022-07-25T09:36:41.232Z,51.47
2022-07-25T09:37:41.549Z,50.09
2022-07-25T09:38:41.854Z,50.26
2022-07-25T09:39:46.073Z,50.26
2022-07-25T09:40:43.364Z,49.57
2022-07-25T09:41:42.671Z,48.57
2022-07-25T09:42:42.935Z,48.87
2022-07-25T09:43:43.196Z,49.46
2022-07-25T09:44:43.449Z,49.46
2022-07-25T09:45:43.688Z,48.27
2022-07-25T09:46:44.027Z,48.55
2022-07-25T09:47:44.160Z,48.75
2022-07-25T09:48:44.543Z,47.75
2022-07-25T09:49:44.703Z,48.35
2022-07-25T09:50:44.980Z,48.15
2022-07-25T09:51:45.251Z,47.46
2022-07-25T09:52:45.518Z,47.74
2022-07-25T09:53:45.859Z,47.74
2022-07-25T09:54:46.031Z,47.74
2022-07-25T09:55:46.288Z,48.03
2022-07-25T09:56:46.566Z,48.23
2022-07-25T09:57:46.805Z,48.13
2022-07-25T09:58:47.086Z,48.23
2022-07-25T09:59:47.346Z,48.13
2022-07-25T10:00:47.620Z,48.33
2022-07-25T10:01:47.982Z,48.03
2022-07-25T10:02:48.133Z,47.71
2022-07-25T10:03:48.352Z,47.41
2022-07-25T10:04:48.611Z,47.02
2022-07-25T10:05:48.887Z,47.12
2022-07-25T10:06:49.141Z,46.62
2022-07-25T10:07:49.422Z,46.92
2022-07-25T10:08:49.671Z,47.12
2022-07-25T10:09:49.913Z,46.62
2022-07-25T10:10:50.201Z,47.22
2022-07-25T10:11:50.463Z,46.92
2022-07-25T10:12:50.752Z,46.52
2022-07-25T10:13:51.035Z,46.72
2022-07-25T10:14:51.324Z,46.30
2022-07-25T10:15:52.594Z,46.11
2022-07-25T10:16:51.956Z,46.20
2022-07-25T10:17:52.248Z,46.11
2022-07-25T10:18:52.593Z,46.30
2022-07-25T10:19:58.292Z,46.42
2022-07-25T10:20:54.098Z,46.62
2022-07-25T10:21:53.417Z,46.62
2022-07-25T10:22:56.874Z,46.60
2022-07-25T10:23:53.940Z,46.40
2022-07-25T10:24:54.177Z,46.60
2022-07-25T10:25:54.470Z,46.50
2022-07-25T10:26:54.779Z,46.30
2022-07-25T10:27:55.055Z,46.70
2022-07-25T10:28:55.362Z,46.50
2022-07-25T10:29:55.618Z,46.70
2022-07-25T10:30:55.949Z,46.89
2022-07-25T10:31:56.211Z,47.19
2022-07-25T10:32:56.474Z,46.80
2022-07-25T10:33:56.743Z,46.60
2022-07-25T10:34:56.981Z,46.80
2022-07-25T10:35:57.236Z,46.60
2022-07-25T10:36:57.515Z,46.70
2022-07-25T10:37:57.736Z,46.80
2022-07-25T10:38:58.007Z,46.89
2022-07-25T10:39:58.270Z,46.80
2022-07-25T10:40:58.526Z,47.00
2022-07-25T10:41:58.779Z,46.50
2022-07-25T10:42:59.030Z,46.38
2022-07-25T10:43:59.314Z,46.48
2022-07-25T10:44:59.584Z,46.28
2022-07-25T10:45:59.866Z,46.38
2022-07-25T10:47:00.134Z,45.96
2022-07-25T10:48:00.424Z,46.26
2022-07-25T10:49:00.766Z,45.86
2022-07-25T10:50:16.902Z,46.85
2022-07-25T10:51:02.156Z,46.36
2022-07-25T10:52:01.470Z,46.16
2022-07-25T10:53:01.738Z,46.55
2022-07-25T10:54:02.007Z,46.45
2022-07-25T10:55:02.299Z,47.07
2022-07-25T10:56:06.014Z,46.55
2022-07-25T10:57:02.860Z,46.55
2022-07-25T10:58:16.993Z,46.45
2022-07-25T10:59:04.775Z,46.66
2022-07-25T11:00:03.650Z,46.55
2022-07-25T11:01:04.014Z,46.36
2022-07-25T11:02:04.170Z,46.16
2022-07-25T11:03:04.488Z,46.16
2022-07-25T11:04:04.882Z,46.45
2022-07-25T11:05:04.972Z,46.45
2022-07-25T11:06:05.282Z,46.36
2022-07-25T11:07:05.603Z,46.26
2022-07-25T11:08:21.165Z,45.74
2022-07-25T11:09:07.501Z,45.23
2022-07-25T11:10:06.374Z,45.20
2022-07-25T11:11:06.657Z,44.91
2022-07-25T11:12:06.945Z,45.18
2022-07-25T11:13:07.198Z,45.08
2022-07-25T11:14:07.538Z,44.98
2022-07-25T11:15:07.816Z,45.28
2022-07-25T11:16:08.078Z,44.89
2022-07-25T11:17:08.423Z,44.79
2022-07-25T11:18:08.609Z,44.69
2022-07-25T11:19:09.259Z,44.79
2022-07-25T11:20:09.265Z,45.40
2022-07-25T11:21:09.503Z,45.10
2022-07-25T11:22:09.779Z,45.20
2022-07-25T11:23:10.047Z,45.60
2022-07-25T11:24:10.305Z,45.60
2022-07-25T11:25:10.564Z,46.00
2022-07-25T11:26:10.844Z,45.70
2022-07-25T11:27:12.323Z,46.09
2022-07-25T11:28:11.464Z,45.89
2022-07-25T11:29:11.748Z,45.70
2022-07-25T11:30:12.035Z,45.48
2022-07-25T11:31:12.306Z,45.28
2022-07-25T11:32:12.682Z,45.08
2022-07-25T11:33:17.190Z,45.28
2022-07-25T11:34:13.306Z,44.49
2022-07-25T11:35:13.547Z,44.37
2022-07-25T11:36:13.887Z,44.96
2022-07-25T11:37:14.486Z,44.57
2022-07-25T11:38:14.489Z,45.65
2022-07-25T11:39:18.691Z,45.08
2022-07-25T11:40:15.013Z,45.30
2022-07-25T11:41:15.271Z,45.50
2022-07-25T11:42:15.582Z,45.79
2022-07-25T11:43:15.874Z,45.40
2022-07-25T11:44:16.174Z,45.40
2022-07-25T11:45:16.425Z,45.30
2022-07-25T11:46:16.745Z,45.10
2022-07-25T11:47:17.045Z,44.81
2022-07-25T11:48:18.065Z,44.81
2022-07-25T11:49:19.464Z,44.71
2022-07-25T11:50:17.799Z,44.22
2022-07-25T11:51:19.134Z,44.59
2022-07-25T11:52:18.386Z,44.69
2022-07-25T11:53:18.753Z,44.89
2022-07-25T11:54:18.981Z,44.59
2022-07-25T11:55:19.140Z,45.18
2022-07-25T11:56:41.290Z,45.26
2022-07-25T11:57:20.662Z,44.96
2022-07-25T11:58:20.060Z,44.96
2022-07-25T11:59:20.407Z,44.37
2022-07-25T12:00:20.678Z,44.76
2022-07-25T12:01:21.046Z,45.06
2022-07-25T12:02:21.466Z,45.26
2022-07-25T12:03:21.741Z,44.96
2022-07-25T12:04:22.005Z,44.98
2022-07-25T12:05:22.301Z,45.38
2022-07-25T12:06:22.549Z,44.91
2022-07-25T12:07:22.828Z,45.30
2022-07-25T12:08:23.117Z,45.20
2022-07-25T12:09:23.387Z,45.10
2022-07-25T12:10:23.647Z,45.10
2022-07-25T12:11:23.919Z,45.42
2022-07-25T12:12:24.315Z,46.31
2022-07-25T12:13:24.442Z,46.22
2022-07-25T12:14:24.759Z,46.01
2022-07-25T12:15:25.040Z,45.89
2022-07-25T12:16:26.091Z,45.89
2022-07-25T12:17:25.522Z,45.70
2022-07-25T12:18:25.797Z,46.09
2022-07-25T12:19:26.115Z,45.60
2022-07-25T12:20:26.383Z,45.40
2022-07-25T12:21:27.435Z,45.57
2022-07-25T12:22:26.877Z,45.38
2022-07-25T12:23:27.144Z,45.28
2022-07-25T12:24:27.456Z,45.30
2022-07-25T12:25:31.033Z,45.89
2022-07-25T12:26:28.117Z,45.20
2022-07-25T12:27:28.445Z,45.40
2022-07-25T12:28:28.761Z,45.28
2022-07-25T12:29:29.121Z,45.57
2022-07-25T12:30:29.466Z,45.08
2022-07-25T12:31:29.750Z,45.67
2022-07-25T12:32:29.900Z,45.60
2022-07-25T12:33:30.915Z,46.09
2022-07-25T12:34:30.420Z,46.00
2022-07-25T12:35:30.711Z,46.48
2022-07-25T12:36:30.971Z,46.48
2022-07-25T12:37:31.233Z,46.19
2022-07-25T12:38:33.509Z,46.48
2022-07-25T12:39:31.864Z,46.19
2022-07-25T12:40:32.126Z,46.47
2022-07-25T12:41:32.420Z,46.07
2022-07-25T12:42:32.678Z,46.07
2022-07-25T12:43:32.950Z,46.07
2022-07-25T12:44:33.251Z,46.09
2022-07-25T12:45:33.606Z,46.39
2022-07-25T12:46:33.726Z,46.59
2022-07-25T12:47:33.976Z,46.19
2022-07-25T12:48:34.270Z,46.19
2022-07-25T12:49:34.533Z,46.29
2022-07-25T12:50:34.781Z,45.97
2022-07-25T12:51:35.040Z,45.78
2022-07-25T12:52:35.284Z,45.57
2022-07-25T12:53:40.255Z,45.26
2022-07-25T12:54:36.891Z,45.56
2022-07-25T12:55:36.162Z,45.36
2022-07-25T12:56:36.405Z,45.26